sensor_id;sensor_type;location;lat;lon;timestamp;P1;durP1;ratioP1;P2;durP2;ratioP2
58681;SDS011;44460;40.162;18.294;2022-08-11T00:01:22;21.67;;;8.77;;
58681;SDS011;44460;40.162;18.294;2022-08-11T00:03:56;18.98;;;8.57;;
58681;SDS011;44460;40.162;18.294;2022-08-11T00:06:23;18.55;;;9.23;;
58681;SDS011;44460;40.162;18.294;2022-08-11T00:08:50;20.40;;;9.48;;
58681;SDS011;44460;40.162;18.294;2022-08-11T00:11:16;21.40;;;9.10;;
58681;SDS011;44460;40.162;18.294;2022-08-11T00:13:43;24.50;;;9.57;;
58681;SDS011;44460;40.162;18.294;2022-08-11T00:18:38;17.50;;;7.95;;
58681;SDS011;44460;40.162;18.294;2022-08-11T00:21:05;17.90;;;8.80;;
58681;SDS011;44460;40.162;18.294;2022-08-11T00:23:31;23.25;;;8.77;;
58681;SDS011;44460;40.162;18.294;2022-08-11T00:25:56;18.63;;;9.45;;
58681;SDS011;44460;40.162;18.294;2022-08-11T00:28:23;16.65;;;9.38;;
58681;SDS011;44460;40.162;18.294;2022-08-11T00:30:49;18.63;;;8.90;;
58681;SDS011;44460;40.162;18.294;2022-08-11T00:33:15;20.17;;;9.00;;
58681;SDS011;44460;40.162;18.294;2022-08-11T00:35:41;19.02;;;9.30;;
58681;SDS011;44460;40.162;18.294;2022-08-11T00:38:07;17.10;;;8.80;;
58681;SDS011;44460;40.162;18.294;2022-08-11T00:40:36;17.35;;;8.15;;
58681;SDS011;44460;40.162;18.294;2022-08-11T00:45:38;18.58;;;8.82;;
58681;SDS011;44460;40.162;18.294;2022-08-11T00:50:59;21.08;;;8.93;;
58681;SDS011;44460;40.162;18.294;2022-08-11T00:53:48;17.70;;;9.88;;
58681;SDS011;44460;40.162;18.294;2022-08-11T01:01:26;26.95;;;9.02;;
58681;SDS011;44460;40.162;18.294;2022-08-11T01:17:31;18.10;;;8.15;;
58681;SDS011;44460;40.162;18.294;2022-08-11T01:54:23;25.05;;;7.97;;
58681;SDS011;44460;40.162;18.294;2022-08-11T01:59:20;24.13;;;8.07;;
58681;SDS011;44460;40.162;18.294;2022-08-11T02:02:09;18.00;;;7.20;;
58681;SDS011;44460;40.162;18.294;2022-08-11T02:04:58;15.93;;;6.93;;
58681;SDS011;44460;40.162;18.294;2022-08-11T02:13:00;18.08;;;7.00;;
58681;SDS011;44460;40.162;18.294;2022-08-11T02:15:34;21.95;;;7.88;;
58681;SDS011;44460;40.162;18.294;2022-08-11T02:18:22;20.48;;;7.28;;
58681;SDS011;44460;40.162;18.294;2022-08-11T02:21:08;15.13;;;7.07;;
58681;SDS011;44460;40.162;18.294;2022-08-11T02:23:57;20.33;;;7.20;;
58681;SDS011;44460;40.162;18.294;2022-08-11T02:26:25;17.25;;;6.75;;
58681;SDS011;44460;40.162;18.294;2022-08-11T02:31:44;20.55;;;7.03;;
58681;SDS011;44460;40.162;18.294;2022-08-11T02:34:44;20.25;;;7.13;;
58681;SDS011;44460;40.162;18.294;2022-08-11T02:40:29;17.02;;;6.78;;
58681;SDS011;44460;40.162;18.294;2022-08-11T02:47:30;19.00;;;6.80;;
58681;SDS011;44460;40.162;18.294;2022-08-11T02:53:02;15.57;;;6.28;;
58681;SDS011;44460;40.162;18.294;2022-08-11T02:55:34;16.92;;;7.15;;
58681;SDS011;44460;40.162;18.294;2022-08-11T02:58:10;35.90;;;7.97;;
58681;SDS011;44460;40.162;18.294;2022-08-11T03:03:53;17.52;;;7.15;;
58681;SDS011;44460;40.162;18.294;2022-08-11T03:08:52;26.08;;;6.75;;
58681;SDS011;44460;40.162;18.294;2022-08-11T03:14:30;19.55;;;6.93;;
58681;SDS011;44460;40.162;18.294;2022-08-11T03:17:26;18.27;;;6.50;;
58681;SDS011;44460;40.162;18.294;2022-08-11T03:20:19;16.33;;;6.75;;
58681;SDS011;44460;40.162;18.294;2022-08-11T03:22:56;20.45;;;6.57;;
58681;SDS011;44460;40.162;18.294;2022-08-11T03:25:31;22.73;;;6.63;;
58681;SDS011;44460;40.162;18.294;2022-08-11T03:38:54;20.15;;;6.35;;
58681;SDS011;44460;40.162;18.294;2022-08-11T03:46:37;20.02;;;6.68;;
58681;SDS011;44460;40.162;18.294;2022-08-11T03:49:24;15.88;;;6.32;;
58681;SDS011;44460;40.162;18.294;2022-08-11T03:52:12;15.35;;;6.93;;
58681;SDS011;44460;40.162;18.294;2022-08-11T03:54:49;22.08;;;7.57;;
58681;SDS011;44460;40.162;18.294;2022-08-11T04:21:04;19.92;;;6.95;;
58681;SDS011;44460;40.162;18.294;2022-08-11T04:23:46;25.75;;;7.75;;
58681;SDS011;44460;40.162;18.294;2022-08-11T04:26:29;22.58;;;7.65;;
58681;SDS011;44460;40.162;18.294;2022-08-11T04:31:57;55.22;;;10.60;;
58681;SDS011;44460;40.162;18.294;2022-08-11T04:36:55;36.25;;;9.90;;
58681;SDS011;44460;40.162;18.294;2022-08-11T04:51:38;32.72;;;9.60;;
58681;SDS011;44460;40.162;18.294;2022-08-11T04:57:13;29.20;;;8.18;;
58681;SDS011;44460;40.162;18.294;2022-08-11T05:00:03;21.50;;;8.82;;
58681;SDS011;44460;40.162;18.294;2022-08-11T05:13:42;38.83;;;11.02;;
58681;SDS011;44460;40.162;18.294;2022-08-11T05:16:28;52.25;;;11.38;;
58681;SDS011;44460;40.162;18.294;2022-08-11T05:19:15;34.22;;;9.85;;
58681;SDS011;44460;40.162;18.294;2022-08-11T05:22:00;28.02;;;9.70;;
58681;SDS011;44460;40.162;18.294;2022-08-11T05:24:47;27.33;;;9.15;;
58681;SDS011;44460;40.162;18.294;2022-08-11T05:27:35;22.52;;;8.45;;
58681;SDS011;44460;40.162;18.294;2022-08-11T05:30:19;25.30;;;8.20;;
58681;SDS011;44460;40.162;18.294;2022-08-11T05:33:11;48.72;;;11.57;;
58681;SDS011;44460;40.162;18.294;2022-08-11T05:36:07;30.58;;;9.20;;
58681;SDS011;44460;40.162;18.294;2022-08-11T05:38:36;45.13;;;11.60;;
58681;SDS011;44460;40.162;18.294;2022-08-11T05:41:21;35.75;;;12.82;;
58681;SDS011;44460;40.162;18.294;2022-08-11T05:44:05;28.60;;;8.68;;
58681;SDS011;44460;40.162;18.294;2022-08-11T05:46:50;20.63;;;6.90;;
58681;SDS011;44460;40.162;18.294;2022-08-11T05:49:34;11.48;;;7.10;;
58681;SDS011;44460;40.162;18.294;2022-08-11T05:52:22;21.40;;;7.68;;
58681;SDS011;44460;40.162;18.294;2022-08-11T05:55:07;230.45;;;25.17;;
58681;SDS011;44460;40.162;18.294;2022-08-11T05:57:55;255.55;;;29.10;;
58681;SDS011;44460;40.162;18.294;2022-08-11T06:00:21;221.77;;;28.13;;
58681;SDS011;44460;40.162;18.294;2022-08-11T06:02:52;182.23;;;28.75;;
58681;SDS011;44460;40.162;18.294;2022-08-11T06:05:29;36.40;;;27.63;;
58681;SDS011;44460;40.162;18.294;2022-08-11T06:07:56;34.92;;;17.38;;
58681;SDS011;44460;40.162;18.294;2022-08-11T06:10:31;23.63;;;16.80;;
58681;SDS011;44460;40.162;18.294;2022-08-11T06:12:57;38.25;;;22.55;;
58681;SDS011;44460;40.162;18.294;2022-08-11T06:15:25;30.88;;;18.70;;
58681;SDS011;44460;40.162;18.294;2022-08-11T06:17:51;25.58;;;16.27;;
58681;SDS011;44460;40.162;18.294;2022-08-11T06:20:18;33.70;;;22.27;;
58681;SDS011;44460;40.162;18.294;2022-08-11T06:22:44;34.28;;;20.38;;
58681;SDS011;44460;40.162;18.294;2022-08-11T06:25:11;26.15;;;17.35;;
58681;SDS011;44460;40.162;18.294;2022-08-11T06:27:38;24.40;;;15.40;;
58681;SDS011;44460;40.162;18.294;2022-08-11T06:30:04;269.85;;;38.47;;
58681;SDS011;44460;40.162;18.294;2022-08-11T06:32:38;104.72;;;23.48;;
58681;SDS011;44460;40.162;18.294;2022-08-11T06:35:24;167.27;;;27.88;;
58681;SDS011;44460;40.162;18.294;2022-08-11T06:40:25;27.05;;;17.45;;
58681;SDS011;44460;40.162;18.294;2022-08-11T06:42:58;25.70;;;17.13;;
58681;SDS011;44460;40.162;18.294;2022-08-11T06:46:00;22.52;;;15.80;;
58681;SDS011;44460;40.162;18.294;2022-08-11T06:48:21;29.17;;;17.30;;
58681;SDS011;44460;40.162;18.294;2022-08-11T06:50:51;35.20;;;25.75;;
58681;SDS011;44460;40.162;18.294;2022-08-11T06:53:36;21.58;;;15.77;;
58681;SDS011;44460;40.162;18.294;2022-08-11T06:56:03;25.90;;;16.48;;
58681;SDS011;44460;40.162;18.294;2022-08-11T06:58:47;20.38;;;15.70;;
58681;SDS011;44460;40.162;18.294;2022-08-11T07:01:37;49.22;;;32.72;;
58681;SDS011;44460;40.162;18.294;2022-08-11T07:04:12;21.83;;;15.52;;
58681;SDS011;44460;40.162;18.294;2022-08-11T07:06:54;20.08;;;15.15;;
58681;SDS011;44460;40.162;18.294;2022-08-11T07:12:38;26.60;;;17.02;;
58681;SDS011;44460;40.162;18.294;2022-08-11T07:15:25;24.13;;;12.68;;
58681;SDS011;44460;40.162;18.294;2022-08-11T07:18:11;18.00;;;12.85;;
58681;SDS011;44460;40.162;18.294;2022-08-11T07:21:04;16.42;;;12.65;;
58681;SDS011;44460;40.162;18.294;2022-08-11T07:23:49;22.05;;;12.80;;
58681;SDS011;44460;40.162;18.294;2022-08-11T07:26:34;29.23;;;17.75;;
58681;SDS011;44460;40.162;18.294;2022-08-11T07:29:18;17.60;;;12.35;;
58681;SDS011;44460;40.162;18.294;2022-08-11T07:31:47;18.17;;;11.50;;
58681;SDS011;44460;40.162;18.294;2022-08-11T07:34:22;20.92;;;11.45;;
58681;SDS011;44460;40.162;18.294;2022-08-11T07:36:58;22.83;;;12.95;;
58681;SDS011;44460;40.162;18.294;2022-08-11T07:39:26;16.10;;;11.82;;
58681;SDS011;44460;40.162;18.294;2022-08-11T07:41:52;15.15;;;10.75;;
58681;SDS011;44460;40.162;18.294;2022-08-11T07:44:18;14.52;;;11.00;;
58681;SDS011;44460;40.162;18.294;2022-08-11T07:46:46;25.17;;;16.00;;
58681;SDS011;44460;40.162;18.294;2022-08-11T07:49:35;21.95;;;15.95;;
58681;SDS011;44460;40.162;18.294;2022-08-11T07:52:20;44.85;;;24.08;;
58681;SDS011;44460;40.162;18.294;2022-08-11T07:54:56;17.60;;;12.45;;
58681;SDS011;44460;40.162;18.294;2022-08-11T07:57:22;14.57;;;9.40;;
58681;SDS011;44460;40.162;18.294;2022-08-11T08:00:06;19.65;;;9.38;;
58681;SDS011;44460;40.162;18.294;2022-08-11T08:02:51;17.27;;;8.93;;
58681;SDS011;44460;40.162;18.294;2022-08-11T08:05:35;14.68;;;8.30;;
58681;SDS011;44460;40.162;18.294;2022-08-11T08:08:20;23.92;;;8.52;;
58681;SDS011;44460;40.162;18.294;2022-08-11T08:11:04;12.80;;;7.70;;
58681;SDS011;44460;40.162;18.294;2022-08-11T08:13:49;16.58;;;7.65;;
58681;SDS011;44460;40.162;18.294;2022-08-11T08:16:33;14.65;;;8.32;;
58681;SDS011;44460;40.162;18.294;2022-08-11T08:19:18;16.35;;;9.07;;
58681;SDS011;44460;40.162;18.294;2022-08-11T08:21:43;11.10;;;8.03;;
58681;SDS011;44460;40.162;18.294;2022-08-11T08:24:09;18.55;;;10.02;;
58681;SDS011;44460;40.162;18.294;2022-08-11T08:26:35;15.00;;;8.40;;
58681;SDS011;44460;40.162;18.294;2022-08-11T08:29:20;20.45;;;12.88;;
58681;SDS011;44460;40.162;18.294;2022-08-11T08:32:05;19.38;;;10.80;;
58681;SDS011;44460;40.162;18.294;2022-08-11T08:34:31;13.05;;;9.27;;
58681;SDS011;44460;40.162;18.294;2022-08-11T08:36:57;11.45;;;6.85;;
58681;SDS011;44460;40.162;18.294;2022-08-11T08:39:24;15.82;;;9.57;;
58681;SDS011;44460;40.162;18.294;2022-08-11T08:41:51;16.58;;;9.68;;
58681;SDS011;44460;40.162;18.294;2022-08-11T08:44:18;13.35;;;7.05;;
58681;SDS011;44460;40.162;18.294;2022-08-11T08:46:47;12.73;;;6.90;;
58681;SDS011;44460;40.162;18.294;2022-08-11T08:49:14;13.85;;;7.05;;
58681;SDS011;44460;40.162;18.294;2022-08-11T08:51:40;23.40;;;7.40;;
58681;SDS011;44460;40.162;18.294;2022-08-11T08:54:15;11.90;;;6.45;;
58681;SDS011;44460;40.162;18.294;2022-08-11T08:56:41;12.93;;;7.05;;
58681;SDS011;44460;40.162;18.294;2022-08-11T08:59:08;14.82;;;7.05;;
58681;SDS011;44460;40.162;18.294;2022-08-11T09:01:35;12.70;;;7.25;;
58681;SDS011;44460;40.162;18.294;2022-08-11T09:04:08;15.52;;;6.93;;
58681;SDS011;44460;40.162;18.294;2022-08-11T09:06:36;9.98;;;6.45;;
58681;SDS011;44460;40.162;18.294;2022-08-11T09:09:04;13.63;;;7.43;;
58681;SDS011;44460;40.162;18.294;2022-08-11T09:11:32;25.05;;;7.53;;
58681;SDS011;44460;40.162;18.294;2022-08-11T09:14:18;26.50;;;7.22;;
58681;SDS011;44460;40.162;18.294;2022-08-11T09:16:43;61.43;;;10.93;;
58681;SDS011;44460;40.162;18.294;2022-08-11T09:19:09;16.65;;;6.20;;
58681;SDS011;44460;40.162;18.294;2022-08-11T09:21:41;35.20;;;7.75;;
58681;SDS011;44460;40.162;18.294;2022-08-11T09:24:07;16.42;;;6.55;;
58681;SDS011;44460;40.162;18.294;2022-08-11T09:26:51;21.55;;;7.05;;
58681;SDS011;44460;40.162;18.294;2022-08-11T09:29:27;10.90;;;6.03;;
58681;SDS011;44460;40.162;18.294;2022-08-11T09:31:53;16.42;;;6.50;;
58681;SDS011;44460;40.162;18.294;2022-08-11T09:34:20;22.67;;;6.45;;
58681;SDS011;44460;40.162;18.294;2022-08-11T09:36:45;10.15;;;5.63;;
58681;SDS011;44460;40.162;18.294;2022-08-11T09:39:31;12.75;;;5.85;;
58681;SDS011;44460;40.162;18.294;2022-08-11T09:42:19;8.02;;;5.50;;
58681;SDS011;44460;40.162;18.294;2022-08-11T09:44:45;15.90;;;6.10;;
58681;SDS011;44460;40.162;18.294;2022-08-11T09:47:13;7.78;;;5.15;;
58681;SDS011;44460;40.162;18.294;2022-08-11T09:49:42;9.95;;;5.35;;
58681;SDS011;44460;40.162;18.294;2022-08-11T09:52:08;8.93;;;5.70;;
58681;SDS011;44460;40.162;18.294;2022-08-11T09:54:34;7.68;;;5.30;;
58681;SDS011;44460;40.162;18.294;2022-08-11T09:57:00;8.40;;;5.28;;
58681;SDS011;44460;40.162;18.294;2022-08-11T09:59:45;8.52;;;5.32;;
58681;SDS011;44460;40.162;18.294;2022-08-11T10:02:11;11.23;;;5.93;;
58681;SDS011;44460;40.162;18.294;2022-08-11T10:04:41;8.60;;;4.90;;
58681;SDS011;44460;40.162;18.294;2022-08-11T10:07:07;16.33;;;5.70;;
58681;SDS011;44460;40.162;18.294;2022-08-11T10:09:43;9.15;;;5.00;;
58681;SDS011;44460;40.162;18.294;2022-08-11T10:12:10;10.40;;;5.60;;
58681;SDS011;44460;40.162;18.294;2022-08-11T10:14:41;15.10;;;6.00;;
58681;SDS011;44460;40.162;18.294;2022-08-11T10:17:26;8.90;;;5.57;;
58681;SDS011;44460;40.162;18.294;2022-08-11T10:19:54;7.95;;;5.32;;
58681;SDS011;44460;40.162;18.294;2022-08-11T10:25:06;17.38;;;5.88;;
58681;SDS011;44460;40.162;18.294;2022-08-11T10:27:50;15.23;;;5.50;;
58681;SDS011;44460;40.162;18.294;2022-08-11T10:30:25;10.02;;;5.95;;
58681;SDS011;44460;40.162;18.294;2022-08-11T10:33:13;8.63;;;5.25;;
58681;SDS011;44460;40.162;18.294;2022-08-11T10:35:57;9.33;;;5.23;;
58681;SDS011;44460;40.162;18.294;2022-08-11T10:38:23;15.65;;;5.40;;
58681;SDS011;44460;40.162;18.294;2022-08-11T10:40:49;22.63;;;6.30;;
58681;SDS011;44460;40.162;18.294;2022-08-11T10:43:35;9.75;;;5.60;;
58681;SDS011;44460;40.162;18.294;2022-08-11T10:46:02;9.65;;;5.60;;
58681;SDS011;44460;40.162;18.294;2022-08-11T10:48:48;10.55;;;6.18;;
58681;SDS011;44460;40.162;18.294;2022-08-11T10:51:14;11.43;;;5.18;;
58681;SDS011;44460;40.162;18.294;2022-08-11T10:53:44;12.23;;;5.22;;
58681;SDS011;44460;40.162;18.294;2022-08-11T10:56:29;13.30;;;5.82;;
58681;SDS011;44460;40.162;18.294;2022-08-11T10:59:13;10.82;;;6.10;;
58681;SDS011;44460;40.162;18.294;2022-08-11T11:01:40;19.00;;;5.93;;
58681;SDS011;44460;40.162;18.294;2022-08-11T11:04:11;14.15;;;6.25;;
58681;SDS011;44460;40.162;18.294;2022-08-11T11:09:19;11.57;;;5.90;;
58681;SDS011;44460;40.162;18.294;2022-08-11T11:11:53;11.73;;;6.07;;
58681;SDS011;44460;40.162;18.294;2022-08-11T11:14:39;11.43;;;6.07;;
58681;SDS011;44460;40.162;18.294;2022-08-11T11:17:43;11.48;;;5.90;;
58681;SDS011;44460;40.162;18.294;2022-08-11T11:20:22;9.73;;;5.10;;
58681;SDS011;44460;40.162;18.294;2022-08-11T11:22:50;12.20;;;5.47;;
58681;SDS011;44460;40.162;18.294;2022-08-11T11:27:49;12.50;;;6.00;;
58681;SDS011;44460;40.162;18.294;2022-08-11T11:30:17;10.90;;;5.18;;
58681;SDS011;44460;40.162;18.294;2022-08-11T11:32:45;11.45;;;5.28;;
58681;SDS011;44460;40.162;18.294;2022-08-11T11:37:41;11.73;;;5.20;;
58681;SDS011;44460;40.162;18.294;2022-08-11T11:40:08;13.25;;;5.47;;
58681;SDS011;44460;40.162;18.294;2022-08-11T11:42:40;9.75;;;6.13;;
58681;SDS011;44460;40.162;18.294;2022-08-11T11:45:07;9.68;;;5.38;;
58681;SDS011;44460;40.162;18.294;2022-08-11T11:49:58;11.95;;;6.70;;
58681;SDS011;44460;40.162;18.294;2022-08-11T11:52:24;15.75;;;6.88;;
58681;SDS011;44460;40.162;18.294;2022-08-11T11:54:51;13.60;;;7.70;;
58681;SDS011;44460;40.162;18.294;2022-08-11T11:57:18;10.73;;;6.85;;
58681;SDS011;44460;40.162;18.294;2022-08-11T12:00:07;11.60;;;6.53;;
58681;SDS011;44460;40.162;18.294;2022-08-11T12:02:51;13.77;;;7.65;;
58681;SDS011;44460;40.162;18.294;2022-08-11T12:05:17;15.40;;;8.05;;
58681;SDS011;44460;40.162;18.294;2022-08-11T12:07:43;10.88;;;5.80;;
58681;SDS011;44460;40.162;18.294;2022-08-11T12:10:27;11.07;;;7.53;;
58681;SDS011;44460;40.162;18.294;2022-08-11T12:12:53;16.10;;;6.72;;
58681;SDS011;44460;40.162;18.294;2022-08-11T12:15:36;12.85;;;6.55;;
58681;SDS011;44460;40.162;18.294;2022-08-11T12:18:02;8.82;;;5.72;;
58681;SDS011;44460;40.162;18.294;2022-08-11T12:20:28;14.73;;;6.80;;
58681;SDS011;44460;40.162;18.294;2022-08-11T12:22:54;16.08;;;7.15;;
58681;SDS011;44460;40.162;18.294;2022-08-11T12:25:39;11.63;;;6.20;;
58681;SDS011;44460;40.162;18.294;2022-08-11T12:28:23;14.15;;;7.93;;
58681;SDS011;44460;40.162;18.294;2022-08-11T12:30:49;15.73;;;6.55;;
58681;SDS011;44460;40.162;18.294;2022-08-11T12:33:16;11.93;;;6.10;;
58681;SDS011;44460;40.162;18.294;2022-08-11T12:35:42;12.23;;;6.03;;
58681;SDS011;44460;40.162;18.294;2022-08-11T12:38:08;14.93;;;6.50;;
58681;SDS011;44460;40.162;18.294;2022-08-11T12:40:34;11.45;;;5.75;;
58681;SDS011;44460;40.162;18.294;2022-08-11T12:43:20;13.95;;;5.63;;
58681;SDS011;44460;40.162;18.294;2022-08-11T12:46:08;12.50;;;5.00;;
58681;SDS011;44460;40.162;18.294;2022-08-11T12:48:35;11.75;;;5.43;;
58681;SDS011;44460;40.162;18.294;2022-08-11T12:51:21;19.20;;;5.55;;
58681;SDS011;44460;40.162;18.294;2022-08-11T12:54:10;12.15;;;4.80;;
58681;SDS011;44460;40.162;18.294;2022-08-11T12:56:37;9.80;;;4.90;;
58681;SDS011;44460;40.162;18.294;2022-08-11T12:59:22;9.55;;;5.10;;
58681;SDS011;44460;40.162;18.294;2022-08-11T13:02:07;11.10;;;5.45;;
58681;SDS011;44460;40.162;18.294;2022-08-11T13:04:52;14.73;;;5.35;;
58681;SDS011;44460;40.162;18.294;2022-08-11T13:07:24;12.23;;;5.07;;
58681;SDS011;44460;40.162;18.294;2022-08-11T13:09:50;16.33;;;5.15;;
58681;SDS011;44460;40.162;18.294;2022-08-11T13:12:16;9.73;;;4.63;;
58681;SDS011;44460;40.162;18.294;2022-08-11T13:15:00;12.25;;;4.53;;
58681;SDS011;44460;40.162;18.294;2022-08-11T13:17:26;9.15;;;4.63;;
58681;SDS011;44460;40.162;18.294;2022-08-11T13:22:19;11.93;;;4.53;;
58681;SDS011;44460;40.162;18.294;2022-08-11T13:24:46;12.50;;;4.55;;
58681;SDS011;44460;40.162;18.294;2022-08-11T13:27:14;14.40;;;5.43;;
58681;SDS011;44460;40.162;18.294;2022-08-11T13:29:41;13.55;;;8.07;;
58681;SDS011;44460;40.162;18.294;2022-08-11T13:32:07;7.25;;;4.43;;
58681;SDS011;44460;40.162;18.294;2022-08-11T13:34:32;11.98;;;5.00;;
58681;SDS011;44460;40.162;18.294;2022-08-11T13:37:01;13.13;;;4.95;;
58681;SDS011;44460;40.162;18.294;2022-08-11T13:39:28;11.70;;;5.63;;
58681;SDS011;44460;40.162;18.294;2022-08-11T13:41:54;12.45;;;6.50;;
58681;SDS011;44460;40.162;18.294;2022-08-11T13:46:46;14.52;;;4.90;;
58681;SDS011;44460;40.162;18.294;2022-08-11T13:49:15;15.40;;;6.28;;
58681;SDS011;44460;40.162;18.294;2022-08-11T13:51:41;18.52;;;9.20;;
58681;SDS011;44460;40.162;18.294;2022-08-11T13:54:08;9.18;;;5.10;;
58681;SDS011;44460;40.162;18.294;2022-08-11T13:56:34;18.05;;;5.85;;
58681;SDS011;44460;40.162;18.294;2022-08-11T13:59:04;13.15;;;6.55;;
58681;SDS011;44460;40.162;18.294;2022-08-11T14:01:32;10.68;;;6.07;;
58681;SDS011;44460;40.162;18.294;2022-08-11T14:04:10;12.65;;;5.82;;
58681;SDS011;44460;40.162;18.294;2022-08-11T14:06:39;18.50;;;5.65;;
58681;SDS011;44460;40.162;18.294;2022-08-11T14:09:07;14.27;;;5.55;;
58681;SDS011;44460;40.162;18.294;2022-08-11T14:11:33;12.75;;;5.93;;
58681;SDS011;44460;40.162;18.294;2022-08-11T14:14:20;13.00;;;5.35;;
58681;SDS011;44460;40.162;18.294;2022-08-11T14:16:46;20.10;;;5.72;;
58681;SDS011;44460;40.162;18.294;2022-08-11T14:19:12;12.07;;;5.65;;
58681;SDS011;44460;40.162;18.294;2022-08-11T14:21:40;8.85;;;5.40;;
58681;SDS011;44460;40.162;18.294;2022-08-11T14:24:25;9.00;;;5.30;;
58681;SDS011;44460;40.162;18.294;2022-08-11T14:26:51;11.18;;;5.88;;
58681;SDS011;44460;40.162;18.294;2022-08-11T14:29:18;13.45;;;6.05;;
58681;SDS011;44460;40.162;18.294;2022-08-11T14:31:48;12.85;;;5.95;;
58681;SDS011;44460;40.162;18.294;2022-08-11T14:34:14;12.02;;;6.05;;
58681;SDS011;44460;40.162;18.294;2022-08-11T14:36:43;9.68;;;5.03;;
58681;SDS011;44460;40.162;18.294;2022-08-11T14:39:13;12.90;;;5.80;;
58681;SDS011;44460;40.162;18.294;2022-08-11T14:41:59;10.65;;;6.20;;
58681;SDS011;44460;40.162;18.294;2022-08-11T14:44:48;9.52;;;5.60;;
58681;SDS011;44460;40.162;18.294;2022-08-11T14:47:34;11.25;;;6.30;;
58681;SDS011;44460;40.162;18.294;2022-08-11T14:50:00;11.70;;;6.65;;
58681;SDS011;44460;40.162;18.294;2022-08-11T14:52:27;14.65;;;5.95;;
58681;SDS011;44460;40.162;18.294;2022-08-11T14:54:55;14.80;;;7.00;;
58681;SDS011;44460;40.162;18.294;2022-08-11T14:57:40;15.48;;;7.07;;
58681;SDS011;44460;40.162;18.294;2022-08-11T15:00:07;14.38;;;6.95;;
58681;SDS011;44460;40.162;18.294;2022-08-11T15:02:36;10.80;;;6.63;;
58681;SDS011;44460;40.162;18.294;2022-08-11T15:05:21;14.53;;;6.67;;
58681;SDS011;44460;40.162;18.294;2022-08-11T15:07:47;16.50;;;8.00;;
58681;SDS011;44460;40.162;18.294;2022-08-11T15:10:15;11.07;;;7.10;;
58681;SDS011;44460;40.162;18.294;2022-08-11T15:12:40;13.00;;;7.65;;
58681;SDS011;44460;40.162;18.294;2022-08-11T15:15:06;14.35;;;7.78;;
58681;SDS011;44460;40.162;18.294;2022-08-11T15:17:52;10.73;;;7.07;;
58681;SDS011;44460;40.162;18.294;2022-08-11T15:20:19;17.05;;;8.15;;
58681;SDS011;44460;40.162;18.294;2022-08-11T15:23:03;13.43;;;7.50;;
58681;SDS011;44460;40.162;18.294;2022-08-11T15:25:49;11.05;;;7.72;;
58681;SDS011;44460;40.162;18.294;2022-08-11T15:30:59;13.60;;;8.02;;
58681;SDS011;44460;40.162;18.294;2022-08-11T15:33:45;12.80;;;7.10;;
58681;SDS011;44460;40.162;18.294;2022-08-11T15:36:30;18.20;;;8.00;;
58681;SDS011;44460;40.162;18.294;2022-08-11T15:39:18;15.35;;;6.93;;
58681;SDS011;44460;40.162;18.294;2022-08-11T15:41:53;17.70;;;8.07;;
58681;SDS011;44460;40.162;18.294;2022-08-11T15:44:40;14.60;;;7.00;;
58681;SDS011;44460;40.162;18.294;2022-08-11T15:47:28;12.27;;;6.68;;
58681;SDS011;44460;40.162;18.294;2022-08-11T15:49:57;13.05;;;7.28;;
58681;SDS011;44460;40.162;18.294;2022-08-11T15:52:27;17.23;;;7.10;;
58681;SDS011;44460;40.162;18.294;2022-08-11T15:54:53;14.52;;;7.40;;
58681;SDS011;44460;40.162;18.294;2022-08-11T15:57:21;22.90;;;7.30;;
58681;SDS011;44460;40.162;18.294;2022-08-11T16:00:05;14.13;;;6.80;;
58681;SDS011;44460;40.162;18.294;2022-08-11T16:02:50;14.93;;;7.15;;
58681;SDS011;44460;40.162;18.294;2022-08-11T16:05:34;19.27;;;7.25;;
58681;SDS011;44460;40.162;18.294;2022-08-11T16:08:00;12.88;;;7.43;;
58681;SDS011;44460;40.162;18.294;2022-08-11T16:10:26;14.10;;;7.30;;
58681;SDS011;44460;40.162;18.294;2022-08-11T16:15:36;14.32;;;9.20;;
58681;SDS011;44460;40.162;18.294;2022-08-11T16:18:21;24.67;;;8.23;;
58681;SDS011;44460;40.162;18.294;2022-08-11T16:20:50;16.85;;;7.50;;
58681;SDS011;44460;40.162;18.294;2022-08-11T16:23:19;15.60;;;7.50;;
58681;SDS011;44460;40.162;18.294;2022-08-11T16:25:46;14.68;;;7.10;;
58681;SDS011;44460;40.162;18.294;2022-08-11T16:28:12;11.75;;;6.97;;
58681;SDS011;44460;40.162;18.294;2022-08-11T16:30:38;14.93;;;7.53;;
58681;SDS011;44460;40.162;18.294;2022-08-11T16:33:04;15.93;;;7.88;;
58681;SDS011;44460;40.162;18.294;2022-08-11T16:35:34;14.27;;;7.13;;
58681;SDS011;44460;40.162;18.294;2022-08-11T16:38:20;17.40;;;7.97;;
58681;SDS011;44460;40.162;18.294;2022-08-11T16:41:00;16.60;;;8.68;;
58681;SDS011;44460;40.162;18.294;2022-08-11T16:43:27;18.13;;;8.48;;
58681;SDS011;44460;40.162;18.294;2022-08-11T16:46:31;15.85;;;8.68;;
58681;SDS011;44460;40.162;18.294;2022-08-11T16:49:17;11.70;;;8.10;;
58681;SDS011;44460;40.162;18.294;2022-08-11T16:51:45;14.60;;;8.05;;
58681;SDS011;44460;40.162;18.294;2022-08-11T16:54:12;17.27;;;8.47;;
58681;SDS011;44460;40.162;18.294;2022-08-11T16:56:40;22.95;;;10.15;;
58681;SDS011;44460;40.162;18.294;2022-08-11T16:59:14;16.50;;;8.82;;
58681;SDS011;44460;40.162;18.294;2022-08-11T17:01:45;16.65;;;9.63;;
58681;SDS011;44460;40.162;18.294;2022-08-11T17:04:16;11.20;;;8.02;;
58681;SDS011;44460;40.162;18.294;2022-08-11T17:07:02;14.57;;;8.43;;
58681;SDS011;44460;40.162;18.294;2022-08-11T17:10:02;13.85;;;8.57;;
58681;SDS011;44460;40.162;18.294;2022-08-11T17:12:49;13.95;;;8.63;;
58681;SDS011;44460;40.162;18.294;2022-08-11T17:15:34;14.40;;;9.32;;
58681;SDS011;44460;40.162;18.294;2022-08-11T17:18:18;18.52;;;9.85;;
58681;SDS011;44460;40.162;18.294;2022-08-11T17:21:04;18.90;;;9.40;;
58681;SDS011;44460;40.162;18.294;2022-08-11T17:23:30;16.50;;;8.75;;
58681;SDS011;44460;40.162;18.294;2022-08-11T17:26:21;18.23;;;8.93;;
58681;SDS011;44460;40.162;18.294;2022-08-11T17:28:49;13.75;;;8.25;;
58681;SDS011;44460;40.162;18.294;2022-08-11T17:31:15;14.80;;;8.38;;
58681;SDS011;44460;40.162;18.294;2022-08-11T17:34:00;17.48;;;8.63;;
58681;SDS011;44460;40.162;18.294;2022-08-11T17:36:44;19.05;;;8.80;;
58681;SDS011;44460;40.162;18.294;2022-08-11T17:39:10;14.85;;;8.48;;
58681;SDS011;44460;40.162;18.294;2022-08-11T17:41:37;22.60;;;9.65;;
58681;SDS011;44460;40.162;18.294;2022-08-11T17:44:21;17.48;;;9.55;;
58681;SDS011;44460;40.162;18.294;2022-08-11T17:47:07;44.85;;;19.70;;
58681;SDS011;44460;40.162;18.294;2022-08-11T17:49:51;27.30;;;16.13;;
58681;SDS011;44460;40.162;18.294;2022-08-11T17:52:17;13.80;;;10.35;;
58681;SDS011;44460;40.162;18.294;2022-08-11T17:55:02;53.83;;;28.20;;
58681;SDS011;44460;40.162;18.294;2022-08-11T17:57:47;37.42;;;20.90;;
58681;SDS011;44460;40.162;18.294;2022-08-11T18:00:32;25.13;;;13.68;;
58681;SDS011;44460;40.162;18.294;2022-08-11T18:02:57;19.50;;;10.43;;
58681;SDS011;44460;40.162;18.294;2022-08-11T18:05:42;16.33;;;10.30;;
58681;SDS011;44460;40.162;18.294;2022-08-11T18:08:08;17.13;;;8.88;;
58681;SDS011;44460;40.162;18.294;2022-08-11T18:10:54;15.50;;;8.98;;
58681;SDS011;44460;40.162;18.294;2022-08-11T18:13:38;14.48;;;9.32;;
58681;SDS011;44460;40.162;18.294;2022-08-11T18:16:24;15.38;;;9.70;;